• Join FlightAware (Why Join?)
  • Login
  • US Flag 
02:11PM EDT


 

Airport Tracker/Info


-or-


 

Live Flight TrackerFlight Track Log ✈ N777NC ✈ 11-Jul-2013 ✈ KCLE - KATL

Flight Track Log - Related Links

Times and Time Zones

All times are in EDT time to prevent confusion due to time zone crossing. See the N777NC flight status page for this flight to view local times or setup timezone preferences in your user account.

Time Position Orientation Groundspeed Altitude Reporting Facility
EDT Latitude Longitude Course Direction KTS MPH feet Rate Location/Type
04:54PM 41.4222 -81.7656 92° East 227 261 3,000  Level Cleveland Center
04:55PM 41.4000 -81.6875 111° Southeast 280 322 4,900 1,980 Climbing Cleveland Center
04:56PM 41.3208 -81.7028 188° South 265 305 7,400 2,280 Climbing Cleveland Center
04:57PM 41.1954 -82.1153 167° South  Level FlightAware Approximate
04:57PM 41.2472 -81.7569 209° Southwest 270 311 9,900  Level Cleveland Center
04:58PM 41.1002 -82.0867 167° South  Level FlightAware Approximate
04:58PM 41.1739 -81.8025 205° Southwest 283 326 10,800  Level Cleveland Center
04:59PM 41.0063 -82.0531 159° South  Level FlightAware Approximate
04:59PM 41.0939 -81.8589 208° Southwest 325 374 11,800  Level Cleveland Center
05:00PM 41.0058 -81.9175 207° Southwest 356 410 13,800 1,980 Climbing Cleveland Center
05:01PM 40.9153 -81.9761 206° Southwest 361 415 15,800 1,680 Climbing Cleveland Center
05:03PM 40.7419 -82.1044 209° Southwest 362 417 19,000 1,560 Climbing Indianapolis Center
05:05PM 40.6542 -82.1733 211° Southwest 364 419 20,600 1,500 Climbing Indianapolis Center
05:06PM 40.5683 -82.2475 213° Southwest 365 420 22,100 1,320 Climbing Indianapolis Center
05:07PM 40.4842 -82.3231 214° Southwest 364 419 23,400 1,260 Climbing Indianapolis Center
05:08PM 40.3839 -82.4108 214° Southwest 368 423 24,800 1,200 Climbing Indianapolis Center
05:09PM 40.2947 -82.4822 211° Southwest 371 427 25,900 1,020 Climbing Indianapolis Center
05:10PM 40.1992 -82.5464 207° Southwest 374 430 27,000 780 Climbing Indianapolis Center
05:11PM 40.0936 -82.5703 190° South 401 461 27,600 480 Climbing Indianapolis Center
05:12PM 39.9831 -82.5097 157° South 428 493 28,000 120 Climbing Indianapolis Center
05:13PM 39.8622 -82.4889 172° South 434 499 27,900 -60 Descending Indianapolis Center
05:14PM 39.7386 -82.4917 181° South 437 503 27,900  Level Indianapolis Center
05:15PM 39.6167 -82.4994 183° South 434 499 27,900  Level Indianapolis Center
05:16PM 39.4744 -82.5164 185° South 435 501 27,900  Level Indianapolis Center
05:17PM 39.3514 -82.5289 184° South 437 503 27,900  Level Indianapolis Center
05:18PM 39.2289 -82.5425 185° South 437 503 28,000  Climbing Indianapolis Center
05:19PM 39.1017 -82.5547 184° South 429 494 28,000  Level Indianapolis Center
05:20PM 38.9808 -82.5597 182° South 435 501 28,000  Level Indianapolis Center
05:21PM 38.8594 -82.5278 168° South 446 513 28,000  Level Indianapolis Center
05:22PM 38.7389 -82.5036 171° South 439 505 28,000  Level Indianapolis Center
05:23PM 38.6183 -82.4736 169° South 443 510 28,000  Level Indianapolis Center
05:24PM 38.5006 -82.4392 167° South 436 502 28,000  Level Indianapolis Center
05:25PM 38.3603 -82.4389 180° South 429 494 28,000  Level Indianapolis Center
05:26PM 38.2461 -82.4658 191° South 420 483 28,000  Level Indianapolis Center
05:27PM 38.1306 -82.4853 188° South 419 482 28,000  Level Indianapolis Center
05:28PM 38.0164 -82.5106 190° South 414 476 28,000  Level Indianapolis Center
05:29PM 37.9019 -82.5339 189° South 415 478 28,000  Level Indianapolis Center
05:30PM 37.7672 -82.5589 188° South 418 481 28,000  Level Indianapolis Center
05:31PM 37.6489 -82.5772 187° South 425 489 28,000  Level Indianapolis Center
05:32PM 37.5294 -82.5972 188° South 430 495 28,000  Level Indianapolis Center
05:33PM 37.4072 -82.6175 188° South 437 503 28,000  Level Indianapolis Center
05:35PM 37.2858 -82.6406 189° South 439 505 28,000  Level Indianapolis Center
05:36PM 37.1464 -82.6675 189° South 434 499 28,000  Level Indianapolis Center
05:37PM 37.0247 -82.6925 189° South 436 502 28,000  Level Indianapolis Center
05:38PM 36.9017 -82.7169 189° South 437 503 28,000  Level Indianapolis Center
05:39PM 36.7781 -82.7467 191° South 442 509 28,000  Level Indianapolis Center
05:40PM 36.6578 -82.7808 193° South 438 504 28,000  Level Indianapolis Center
05:41PM 36.5406 -82.8233 196° South 436 502 28,000  Level Indianapolis Center
05:42PM 36.4136 -82.8675 196° South 442 509 28,000  Level Atlanta Center
05:43PM 36.2950 -82.9131 197° South 442 509 28,000  Level Atlanta Center
05:44PM 36.1767 -82.9533 195° South 437 503 28,000  Level Atlanta Center
05:45PM 36.0622 -82.9983 198° South 437 503 28,000  Level Atlanta Center
05:46PM 35.9414 -83.0308 192° South 437 503 28,000  Level Atlanta Center
05:47PM 35.8186 -83.0503 187° South 442 509 28,000  Level Atlanta Center
05:48PM 35.6956 -83.0669 186° South 447 514 28,000  Level Atlanta Center
05:49PM 35.5728 -83.0914 189° South 447 514 28,000 -540 Level Atlanta Center
05:50PM 35.4542 -83.1183 190° South 447 514 27,000 -900 Descending Atlanta Center
05:51PM 35.3394 -83.1478 192° South 440 506 26,300 -900 Descending Atlanta Center
05:52PM 35.2292 -83.1692 189° South 422 486 25,300 -960 Descending Atlanta Center
05:53PM 35.1333 -83.1906 190° South 407 468 24,400 -660 Descending Atlanta Center
05:54PM 35.0269 -83.2169 191° South 402 463 24,000 -240 Descending Atlanta Center
05:55PM 34.9186 -83.2256 184° South 396 456 24,000  Level Atlanta Center
05:56PM 34.8081 -83.2469 189° South 396 456 24,000 -780 Level Atlanta Center
05:57PM 34.6914 -83.2961 199° South 403 464 22,500 -1,560 Descending Atlanta Center
05:58PM 34.6147 -83.3597 214° Southwest 383 441 21,000 -1,320 Descending Atlanta Center
05:59PM 34.5336 -83.4386 219° Southwest 383 441 19,900 -960 Descending Atlanta Center
06:00PM 34.4506 -83.5172 218° Southwest 383 441 19,100 -1,320 Descending Atlanta Center
06:01PM 34.3508 -83.5983 214° Southwest 394 453 17,300 -2,160 Descending Atlanta Center
06:02PM 34.2000 -83.7333 217° Southwest 383 441 13,500 -2,040 Descending Atlanta TRACON
06:03PM 34.1167 -83.8000 214° Southwest 363 418 11,900 -1,080 Descending Atlanta TRACON
06:04PM 34.0500 -83.8667 220° Southwest 296 341 11,400 -1,020 Descending Atlanta TRACON
06:05PM 34.0000 -83.9500 234° Southwest 287 330 9,900 -1,200 Descending Atlanta TRACON
06:06PM 33.9333 -83.9667 192° South 288 331 9,100 -660 Descending Atlanta TRACON
06:07PM 33.8500 -83.9667 180° South 289 333 8,600 -600 Descending Atlanta TRACON
06:08PM 33.7833 -83.9500 168° South 279 321 8,000 -720 Descending Atlanta TRACON
06:09PM 33.7000 -83.9500 180° South 269 310 7,200 -1,020 Descending Atlanta TRACON
06:10PM 33.6333 -83.9833 203° Southwest 272 313 6,000 -600 Descending Atlanta TRACON
06:11PM 33.6333 -84.0500 270° West 208 239 6,100 -180 Climbing Atlanta TRACON
06:12PM 33.6333 -84.1167 270° West 203 234 5,700 -840 Descending Atlanta TRACON
06:13PM 33.6333 -84.2000 270° West 204 235 4,500 -1,200 Descending Atlanta TRACON